Time;durP1;ratioP1;P1;durP2;ratioP2;P2;SDS_P1;SDS_P2;PMS_P1;PMS_P2;Temp;Humidity;BMP_temperature;BMP_pressure;BME280_temperature;BME280_humidity;BME280_pressure;Samples;Min_cycle;Max_cycle;Signal;HPM_P1;HPM_P2
2023/02/04 00:01:33;;;;;;;26.02;3.72;;;5.20;99.90;;;3.58;100.00;101891.94;5009248;28;20088;-76
2023/02/04 00:03:59;;;;;;;15.23;2.22;;;5.20;99.90;;;3.63;100.00;101886.13;4993918;28;20038;-76
2023/02/04 00:06:24;;;;;;;21.35;2.75;;;5.20;99.90;;;3.69;100.00;101890.97;4999886;28;20117;-76
2023/02/04 00:08:50;;;;;;;23.00;2.67;;;5.30;99.90;;;3.70;100.00;101896.22;5006426;28;20053;-75
2023/02/04 00:11:16;;;;;;;17.30;2.80;;;5.30;99.90;;;3.74;100.00;101905.75;5003656;28;20044;-76
2023/02/04 00:13:42;;;;;;;13.27;2.45;;;5.30;99.90;;;3.62;100.00;101901.50;4999687;28;20081;-76
2023/02/04 00:16:08;;;;;;;9.85;1.52;;;5.30;99.90;;;3.61;100.00;101888.97;5001228;28;20508;-76
2023/02/04 00:18:33;;;;;;;19.70;2.53;;;5.30;99.90;;;3.64;100.00;101918.38;5003390;28;20092;-75
2023/02/04 00:20:59;;;;;;;15.13;2.40;;;5.20;99.90;;;3.67;100.00;101919.94;5011358;28;20513;-76
2023/02/04 00:23:25;;;;;;;8.77;1.80;;;5.30;99.90;;;3.66;100.00;101918.22;5002687;28;20038;-76
2023/02/04 00:25:50;;;;;;;7.40;1.45;;;5.30;99.90;;;3.60;100.00;101925.06;5004528;28;20049;-76
2023/02/04 00:28:16;;;;;;;11.60;1.85;;;5.20;99.90;;;3.48;100.00;101918.94;5002006;28;20493;-76
2023/02/04 00:30:42;;;;;;;10.13;2.35;;;5.10;99.90;;;3.42;100.00;101933.81;5001285;28;20088;-76
2023/02/04 00:33:08;;;;;;;13.27;2.35;;;5.10;99.90;;;3.36;100.00;101944.31;5008289;28;20034;-76
2023/02/04 00:35:36;;;;;;;6.55;1.33;;;5.00;99.90;;;3.26;100.00;101952.34;5008427;28;20034;-76
2023/02/04 00:38:02;;;;;;;;;;;4.90;99.90;;;3.19;100.00;101941.28;5015553;28;20038;-76
2023/02/04 00:40:28;;;;;;;8.35;1.20;;;4.80;99.90;;;3.21;100.00;101942.00;4999434;28;19918;-76
2023/02/04 00:42:54;;;;;;;11.27;1.70;;;4.80;99.90;;;3.20;100.00;101950.22;4996258;28;20528;-76
2023/02/04 00:45:19;;;;;;;13.45;2.72;;;4.80;99.90;;;3.18;100.00;101950.34;5003447;28;20083;-75
2023/02/04 00:47:45;;;;;;;13.18;1.95;;;4.80;99.90;;;3.20;100.00;101966.41;5006646;28;20080;-76
2023/02/04 00:50:11;;;;;;;21.60;2.15;;;4.90;99.90;;;3.23;100.00;101983.19;5019457;28;20401;-76
2023/02/04 00:52:37;;;;;;;11.32;2.30;;;4.80;99.90;;;3.29;100.00;101976.34;5000761;28;20117;-75
2023/02/04 00:55:03;;;;;;;9.50;1.65;;;4.90;99.90;;;3.30;100.00;101988.84;4995997;28;20033;-75
2023/02/04 00:57:29;;;;;;;9.30;1.38;;;4.90;99.90;;;3.32;100.00;101997.69;5001080;28;20066;-76
2023/02/04 00:59:55;;;;;;;11.02;1.92;;;5.00;99.90;;;3.30;100.00;102003.22;5001073;28;20095;-74
2023/02/04 01:02:21;;;;;;;6.90;1.45;;;5.00;99.90;;;3.30;100.00;102005.03;5003745;28;20030;-75
2023/02/04 01:04:47;;;;;;;6.82;1.05;;;4.90;99.90;;;3.30;100.00;102015.84;5000126;28;20555;-74
2023/02/04 01:07:13;;;;;;;6.20;0.90;;;4.90;99.90;;;3.29;100.00;102017.69;5009083;28;20054;-74
2023/02/04 01:09:38;;;;;;;7.30;1.20;;;4.90;99.90;;;3.31;100.00;102020.25;5005865;28;20030;-74
2023/02/04 01:12:04;;;;;;;5.65;1.10;;;5.00;99.90;;;3.28;100.00;102023.22;4995012;28;20048;-74
2023/02/04 01:14:30;;;;;;;8.65;1.90;;;4.90;99.90;;;3.29;100.00;102047.38;5020243;28;20038;-74
2023/02/04 01:16:57;;;;;;;10.63;1.40;;;4.90;99.90;;;3.25;100.00;102053.16;5007828;28;20405;-74
2023/02/04 01:19:23;;;;;;;10.80;1.30;;;4.90;99.90;;;3.17;100.00;102053.81;5009707;28;20033;-74
2023/02/04 01:21:49;;;;;;;8.00;1.17;;;4.90;99.90;;;3.16;100.00;102063.75;5008496;28;20044;-75
2023/02/04 01:24:14;;;;;;;9.95;2.15;;;4.80;99.90;;;3.13;100.00;102065.88;5003841;28;20100;-75
2023/02/04 01:26:59;;;;;;;4.25;1.02;;;4.80;99.90;;;3.13;100.00;102079.34;5006701;28;20501;-75
2023/02/04 01:29:24;;;;;;;5.05;0.82;;;4.80;99.90;;;3.05;100.00;102082.72;5015512;28;20034;-74
2023/02/04 01:31:50;;;;;;;3.50;1.20;;;4.70;99.90;;;3.05;100.00;102079.16;5000955;28;20041;-74
2023/02/04 01:34:16;;;;;;;3.72;1.08;;;4.70;99.90;;;3.06;100.00;102088.97;5011483;28;20046;-74
2023/02/04 01:36:43;;;;;;;3.55;1.00;;;4.70;99.90;;;3.05;100.00;102085.44;5001733;28;20030;-75
2023/02/04 01:39:08;;;;;;;3.67;0.82;;;4.70;99.90;;;3.05;100.00;102077.34;5006552;28;20093;-75
2023/02/04 01:41:34;;;;;;;2.30;0.52;;;4.70;99.90;;;3.02;100.00;102082.97;5001808;28;20513;-76
2023/02/04 01:44:00;;;;;;;2.78;0.73;;;4.70;99.90;;;2.96;100.00;102089.75;5009149;28;20066;-75
2023/02/04 01:46:26;;;;;;;5.43;0.90;;;4.60;99.90;;;2.92;100.00;102096.41;5006556;28;20096;-75
2023/02/04 01:48:52;;;;;;;4.75;0.85;;;4.60;99.90;;;2.93;100.00;102111.59;5008989;28;20030;-76
2023/02/04 01:51:27;;;;;;;2.95;1.10;;;4.60;99.90;;;2.93;100.00;102116.13;5004925;28;20037;-75
2023/02/04 01:53:54;;;;;;;2.08;0.47;;;4.50;99.90;;;2.91;100.00;102126.19;5004844;28;20047;-75
2023/02/04 01:56:25;;;;;;;2.22;0.73;;;4.60;99.90;;;2.94;100.00;102134.88;5005391;28;20034;-75
2023/02/04 01:58:53;;;;;;;2.28;0.98;;;4.60;99.90;;;2.90;100.00;102141.47;5020001;28;20080;-75
2023/02/04 02:01:46;;;;;;;2.92;1.10;;;4.60;99.90;;;2.91;100.00;102153.13;5014614;28;20197;-75
2023/02/04 02:04:17;;;;;;;2.78;1.00;;;4.50;99.90;;;2.92;100.00;102144.94;5001785;28;20117;-75
2023/02/04 02:06:57;;;;;;;1.92;1.00;;;4.60;99.90;;;2.91;100.00;102155.84;5008773;28;20030;-75
2023/02/04 02:09:25;;;;;;;3.38;1.00;;;4.50;99.90;;;2.89;100.00;102164.03;5004709;28;20026;-75
2023/02/04 02:11:52;;;;;;;3.58;0.90;;;4.50;99.90;;;2.93;100.00;102173.59;5000647;28;20030;-75
2023/02/04 02:14:19;;;;;;;1.80;1.05;;;4.50;99.90;;;2.90;100.00;102173.00;5005983;28;20030;-75
2023/02/04 02:16:44;;;;;;;1.85;0.98;;;4.60;99.90;;;2.87;100.00;102184.88;5020659;28;20108;-75
2023/02/04 02:19:21;;;;;;;3.78;1.08;;;4.50;99.90;;;2.84;100.00;102174.34;5016214;28;20034;-75
2023/02/04 02:22:02;;;;;;;3.08;1.08;;;4.50;99.90;;;2.82;100.00;102174.50;5005699;28;20052;-75
2023/02/04 02:24:34;;;;;;;4.38;1.08;;;4.50;99.90;;;2.81;100.00;102178.19;5009931;28;20038;-75
2023/02/04 02:27:07;;;;;;;3.17;0.85;;;4.50;99.90;;;2.79;100.00;102182.84;5021638;28;20100;-75
2023/02/04 02:29:33;;;;;;;1.90;0.77;;;4.50;99.90;;;2.69;100.00;102184.56;5006602;28;20461;-75
2023/02/04 02:31:59;;;;;;;1.05;0.60;;;4.40;99.90;;;2.71;100.00;102196.97;4998523;28;20033;-75
2023/02/04 02:34:28;;;;;;;1.83;0.50;;;4.40;99.90;;;2.67;100.00;102214.38;4996123;28;20749;-75
2023/02/04 02:36:58;;;;;;;1.20;0.50;;;4.30;99.90;;;2.61;100.00;102217.53;5002971;28;20029;-75
2023/02/04 02:39:25;;;;;;;0.70;0.40;;;4.30;99.90;;;2.60;100.00;102215.84;5007737;28;20494;-75
2023/02/04 02:41:50;;;;;;;2.28;0.52;;;4.20;99.90;;;2.59;100.00;102223.06;5006417;28;20053;-75
2023/02/04 02:44:18;;;;;;;2.50;0.75;;;4.20;99.90;;;2.50;100.00;102226.50;4993797;28;20050;-75
2023/02/04 02:46:44;;;;;;;1.38;0.55;;;4.20;99.90;;;2.44;100.00;102227.88;5009074;28;20129;-75
2023/02/04 02:49:16;;;;;;;1.15;0.50;;;4.10;99.90;;;2.37;100.00;102233.88;5010657;28;20038;-75
2023/02/04 02:51:43;;;;;;;2.13;0.70;;;4.00;99.90;;;2.28;100.00;102235.47;5010214;28;20041;-75
2023/02/04 02:54:24;;;;;;;1.80;0.70;;;4.00;99.90;;;2.21;100.00;102243.19;5010018;28;20065;-76
2023/02/04 02:56:54;;;;;;;2.22;0.77;;;3.80;99.90;;;2.11;100.00;102244.91;5013901;28;20030;-75
2023/02/04 02:59:23;;;;;;;1.30;0.70;;;3.80;99.90;;;2.06;100.00;102255.19;5001474;28;20030;-75
2023/02/04 03:01:59;;;;;;;1.23;0.70;;;3.70;99.90;;;2.00;100.00;102251.13;5005057;28;20052;-75
2023/02/04 03:04:33;;;;;;;2.25;0.75;;;3.60;99.90;;;1.81;100.00;102268.72;5007961;28;20041;-76
2023/02/04 03:07:00;;;;;;;2.78;0.70;;;3.40;99.90;;;1.75;100.00;102268.34;5023890;28;20046;-75
2023/02/04 03:09:28;;;;;;;2.40;0.70;;;3.30;99.90;;;1.65;100.00;102265.50;4999323;28;20034;-75
2023/02/04 03:11:53;;;;;;;1.15;0.52;;;3.20;99.90;;;1.55;100.00;102285.03;5008311;28;20455;-75
2023/02/04 03:14:23;;;;;;;1.27;0.65;;;3.20;99.90;;;1.52;100.00;102279.88;5018133;28;20124;-75
2023/02/04 03:16:49;;;;;;;2.55;0.85;;;3.10;99.90;;;1.47;100.00;102281.25;5004430;28;20057;-74
2023/02/04 03:19:15;;;;;;;2.15;0.80;;;3.00;99.90;;;1.40;100.00;102294.28;5008854;28;20034;-74
2023/02/04 03:21:42;;;;;;;1.58;0.70;;;3.00;99.90;;;1.39;100.00;102304.16;5003374;28;20058;-74
2023/02/04 03:24:08;;;;;;;1.50;0.60;;;2.90;99.90;;;1.41;100.00;102312.97;5019979;28;20048;-75
2023/02/04 03:26:36;;;;;;;2.78;0.80;;;3.00;99.90;;;1.42;100.00;102321.91;5000544;28;20124;-75
2023/02/04 03:29:01;;;;;;;2.80;0.75;;;3.00;99.90;;;1.46;100.00;102325.22;4990687;28;20058;-75
2023/02/04 03:31:28;;;;;;;2.38;0.80;;;3.00;99.90;;;1.50;100.00;102334.81;4992686;28;20592;-76
2023/02/04 03:33:53;;;;;;;4.25;0.95;;;3.10;99.90;;;1.54;100.00;102344.34;5002672;28;20037;-75
2023/02/04 03:36:19;;;;;;;2.30;0.75;;;3.10;99.90;;;1.56;100.00;102343.25;5014179;28;20084;-75
2023/02/04 03:38:45;;;;;;;1.10;0.60;;;3.20;99.90;;;1.60;100.00;102349.25;4992315;28;20046;-75
2023/02/04 03:41:11;;;;;;;3.30;0.93;;;3.20;99.90;;;1.62;100.00;102359.94;5008896;28;20489;-76
2023/02/04 03:43:36;;;;;;;1.65;0.75;;;3.20;99.90;;;1.60;100.00;102364.56;5009647;28;20049;-76
2023/02/04 03:46:02;;;;;;;4.63;0.80;;;3.20;99.90;;;1.50;100.00;102359.84;5023479;28;20046;-76
2023/02/04 03:48:28;;;;;;;2.88;1.00;;;3.20;99.90;;;1.40;100.00;102372.28;4996110;28;20031;-76
2023/02/04 03:50:54;;;;;;;0.55;0.55;;;3.10;99.90;;;1.34;100.00;102384.34;4999457;28;20393;-75
2023/02/04 03:53:20;;;;;;;2.00;0.95;;;2.90;99.90;;;1.19;100.00;102374.72;4996383;28;20034;-76
2023/02/04 03:55:46;;;;;;;1.77;0.70;;;2.80;99.90;;;1.03;100.00;102375.84;5009322;28;20803;-76
2023/02/04 03:58:12;;;;;;;1.85;0.82;;;2.60;99.90;;;0.95;100.00;102373.72;4989995;28;20116;-76
2023/02/04 04:00:38;;;;;;;1.65;0.80;;;2.50;99.90;;;0.86;100.00;102382.44;5003587;28;20481;-76
2023/02/04 04:03:03;;;;;;;3.40;0.95;;;2.40;99.90;;;0.81;100.00;102387.28;5016621;28;20042;-75
2023/02/04 04:05:29;;;;;;;1.88;1.00;;;2.30;99.90;;;0.84;100.00;102389.75;5001129;28;20030;-75
2023/02/04 04:07:55;;;;;;;1.58;1.00;;;2.30;99.90;;;0.81;100.00;102392.66;4989310;28;20114;-75
2023/02/04 04:10:21;;;;;;;3.20;1.10;;;2.30;99.90;;;0.71;100.00;102401.38;4999143;28;20034;-75
2023/02/04 04:12:46;;;;;;;3.38;1.10;;;2.30;99.90;;;0.71;100.00;102400.53;4998969;28;20124;-75
2023/02/04 04:15:12;;;;;;;2.03;0.93;;;2.20;99.90;;;0.58;100.00;102405.91;5007472;28;20540;-75
2023/02/04 04:17:38;;;;;;;3.83;1.23;;;2.20;99.90;;;0.52;100.00;102417.06;4998968;28;20030;-76
2023/02/04 04:20:04;;;;;;;3.90;1.05;;;2.00;99.90;;;0.50;100.00;102408.25;5002129;28;20110;-76
2023/02/04 04:22:30;;;;;;;2.28;1.15;;;2.00;99.90;;;0.51;100.00;102426.94;5001786;28;20156;-75
2023/02/04 04:24:56;;;;;;;2.15;1.08;;;2.00;99.90;;;0.53;100.00;102421.47;4999658;28;20160;-76
2023/02/04 04:27:22;;;;;;;3.55;1.10;;;2.10;99.90;;;0.52;100.00;102420.63;5003516;28;20038;-76
2023/02/04 04:29:47;;;;;;;2.13;1.00;;;2.10;99.90;;;0.41;100.00;102425.88;4997880;28;20092;-76
2023/02/04 04:32:13;;;;;;;2.42;1.10;;;2.00;99.90;;;0.28;100.00;102429.41;4997401;28;20049;-76
2023/02/04 04:34:39;;;;;;;2.25;1.02;;;1.90;99.90;;;0.10;100.00;102431.53;5002001;28;20334;-76
2023/02/04 04:37:04;;;;;;;2.92;1.10;;;1.70;99.90;;;-0.11;100.00;102428.47;5008145;28;20542;-76
2023/02/04 04:39:30;;;;;;;2.42;1.10;;;1.60;99.90;;;-0.26;100.00;102441.09;4983803;28;20038;-76
2023/02/04 04:41:56;;;;;;;3.70;1.17;;;1.40;99.90;;;-0.28;100.00;102444.81;5003307;28;20035;-75
2023/02/04 04:44:21;;;;;;;3.38;1.20;;;1.30;99.90;;;-0.33;100.00;102455.84;5009108;28;20038;-75
2023/02/04 04:46:47;;;;;;;4.38;1.60;;;1.20;99.90;;;-0.19;100.00;102452.25;5000543;28;20054;-75
2023/02/04 04:49:13;;;;;;;4.20;1.45;;;1.20;99.90;;;-0.25;100.00;102461.59;5000788;28;20041;-76
2023/02/04 04:51:38;;;;;;;2.08;1.20;;;1.20;99.90;;;-0.23;100.00;102458.78;4989380;28;20042;-75
2023/02/04 04:54:04;;;;;;;3.53;1.20;;;1.20;99.90;;;-0.22;100.00;102472.09;5006553;28;20042;-75
2023/02/04 04:56:30;;;;;;;3.13;1.65;;;1.30;99.90;;;-0.10;100.00;102480.28;5005334;28;20042;-75
2023/02/04 04:58:55;;;;;;;3.35;1.50;;;1.30;99.90;;;-0.03;100.00;102470.88;5007441;28;20499;-76
2023/02/04 05:01:21;;;;;;;4.10;1.58;;;1.40;99.90;;;-0.02;100.00;102477.94;5004355;28;20034;-76
2023/02/04 05:03:47;;;;;;;3.20;1.60;;;1.50;99.90;;;0.03;100.00;102486.59;5003682;28;20054;-76
2023/02/04 05:06:13;;;;;;;2.50;1.48;;;1.50;99.90;;;-0.01;100.00;102491.28;5001692;28;20081;-75
2023/02/04 05:08:39;;;;;;;5.95;1.60;;;1.50;99.90;;;-0.04;100.00;102486.13;5006573;28;20042;-76
2023/02/04 05:11:05;;;;;;;5.15;1.80;;;1.40;99.90;;;-0.13;100.00;102492.13;4998338;28;20041;-75
2023/02/04 05:13:30;;;;;;;4.32;2.10;;;1.40;99.90;;;-0.41;100.00;102485.84;5008387;28;20393;-75
2023/02/04 05:15:56;;;;;;;5.20;1.90;;;1.20;99.90;;;-0.63;100.00;102499.78;5001250;28;20034;-75
2023/02/04 05:18:23;;;;;;;3.30;1.60;;;0.90;99.90;;;-0.73;100.00;102505.72;5005180;28;20390;-75
2023/02/04 05:20:48;;;;;;;8.00;1.85;;;0.80;99.90;;;-0.50;100.00;102505.22;4999865;28;20038;-76
2023/02/04 05:23:15;;;;;;;2.63;1.50;;;0.80;99.90;;;-0.46;100.00;102504.06;4997744;28;20041;-76
2023/02/04 05:25:41;;;;;;;4.50;1.58;;;0.90;99.90;;;-0.47;100.00;102502.34;5003662;28;20045;-75
2023/02/04 05:28:07;;;;;;;10.63;2.08;;;1.00;99.90;;;-0.52;100.00;102505.31;5008919;28;20034;-75
2023/02/04 05:30:33;;;;;;;2.65;1.55;;;0.90;99.90;;;-0.70;100.00;102510.00;4990102;28;20049;-75
2023/02/04 05:32:58;;;;;;;3.88;1.77;;;0.80;99.90;;;-0.74;100.00;102527.25;5005647;28;20092;-76
2023/02/04 05:35:24;;;;;;;4.15;1.98;;;0.70;99.90;;;-0.83;100.00;102526.00;5003910;28;20042;-76
2023/02/04 05:37:50;;;;;;;3.30;1.73;;;0.70;99.90;;;-0.93;100.00;102532.91;5008121;28;20050;-75
2023/02/04 05:40:16;;;;;;;3.72;2.00;;;0.60;99.90;;;-0.78;100.00;102529.28;5012930;28;20041;-75
2023/02/04 05:42:41;;;;;;;6.43;2.17;;;0.70;99.90;;;-0.83;100.00;102541.25;5004679;28;20455;-75
2023/02/04 05:45:15;;;;;;;3.53;1.83;;;0.70;99.90;;;-0.93;100.00;102555.22;5010441;28;20457;-75
2023/02/04 05:47:41;;;;;;;6.15;1.98;;;0.60;99.90;;;-0.89;100.00;102563.91;5009331;28;20121;-75
2023/02/04 05:50:07;;;;;;;4.20;1.88;;;0.60;99.90;;;-0.91;100.00;102571.19;5003258;28;20030;-74
2023/02/04 05:52:33;;;;;;;5.28;2.40;;;0.70;99.90;;;-0.92;100.00;102564.09;5005904;28;20034;-74
2023/02/04 05:54:59;;;;;;;3.45;1.80;;;0.70;99.90;;;-1.07;100.00;102566.75;4999125;28;20125;-74
2023/02/04 05:57:24;;;;;;;6.45;2.35;;;0.60;99.90;;;-1.26;100.00;102560.81;5000407;28;20033;-74
2023/02/04 05:59:50;;;;;;;3.55;1.90;;;0.40;99.90;;;-1.37;100.00;102559.59;5007913;28;20033;-73
2023/02/04 06:02:16;;;;;;;5.65;2.15;;;0.20;99.90;;;-1.38;100.00;102563.25;5006634;28;20038;-73
2023/02/04 06:04:41;;;;;;;6.43;2.10;;;0.10;99.90;;;-1.32;100.00;102573.63;5010553;28;20041;-73
2023/02/04 06:07:07;;;;;;;4.38;1.90;;;0.20;99.90;;;-1.45;100.00;102575.28;5001293;28;20030;-73
2023/02/04 06:09:33;;;;;;;5.15;1.90;;;0.10;99.90;;;-1.54;100.00;102575.81;5007532;28;20042;-74
2023/02/04 06:11:59;;;;;;;4.93;2.08;;;0.10;99.90;;;-1.51;100.00;102571.13;5016868;28;20468;-77
2023/02/04 06:14:24;;;;;;;5.78;2.70;;;0.00;99.90;;;-1.40;100.00;102569.66;5005107;28;20033;-76
2023/02/04 06:16:50;;;;;;;6.82;2.40;;;0.10;99.90;;;-1.49;100.00;102571.06;5010471;28;20049;-75
2023/02/04 06:19:16;;;;;;;5.72;2.40;;;0.10;99.90;;;-1.38;100.00;102573.09;5002272;28;20080;-77
2023/02/04 06:21:41;;;;;;;5.07;2.22;;;0.20;99.90;;;-1.24;100.00;102580.31;4993788;28;20103;-75
2023/02/04 06:24:07;;;;;;;4.68;2.35;;;0.30;99.90;;;-1.28;100.00;102584.13;5003209;28;20045;-73
2023/02/04 06:26:33;;;;;;;4.47;2.72;;;0.30;99.90;;;-1.36;100.00;102593.47;4985533;28;20026;-75
2023/02/04 06:28:58;;;;;;;5.00;2.65;;;0.20;99.90;;;-1.58;100.00;102591.19;5017745;28;20092;-75
2023/02/04 06:31:24;;;;;;;4.80;2.20;;;0.10;99.90;;;-1.85;100.00;102589.16;5001532;28;20049;-75
2023/02/04 06:33:50;;;;;;;4.72;1.98;;;-0.20;99.90;;;-2.13;100.00;102597.88;5004338;28;20038;-74
2023/02/04 06:36:16;;;;;;;5.10;2.30;;;-0.40;99.90;;;-2.38;100.00;102607.28;5006294;28;20038;-74
2023/02/04 06:38:41;;;;;;;5.15;2.20;;;-0.70;99.90;;;-2.66;100.00;102600.72;5002999;28;20030;-74
2023/02/04 06:41:07;;;;;;;4.75;2.30;;;-0.90;99.90;;;-2.51;100.00;102602.56;4996283;28;20041;-74
2023/02/04 06:43:33;;;;;;;4.32;2.03;;;-0.90;99.90;;;-2.50;100.00;102611.47;5001226;28;20035;-74
2023/02/04 06:45:58;;;;;;;4.85;2.53;;;-0.90;99.90;;;-2.66;100.00;102592.69;5009600;28;20042;-75
2023/02/04 06:48:24;;;;;;;3.90;2.28;;;-1.00;99.90;;;-2.76;100.00;102603.03;5004611;28;20044;-74
2023/02/04 06:50:50;;;;;;;3.05;1.73;;;-1.10;99.90;;;-2.87;100.00;102610.72;5009836;28;20045;-74
2023/02/04 06:53:16;;;;;;;3.75;2.15;;;-1.20;99.90;;;-2.98;100.00;102609.50;5004160;28;20038;-73
2023/02/04 06:55:42;;;;;;;5.07;2.25;;;-1.30;99.90;;;-2.98;100.00;102616.63;4999012;28;20034;-74
2023/02/04 06:58:08;;;;;;;5.90;2.47;;;-1.30;99.90;;;-2.97;100.00;102619.25;5002288;28;20141;-74
2023/02/04 07:00:34;;;;;;;5.63;2.40;;;-1.30;99.90;;;-3.01;100.00;102619.47;5002107;28;20092;-74
2023/02/04 07:02:59;;;;;;;5.38;2.28;;;-1.30;99.90;;;-2.93;100.00;102626.16;5010138;28;20046;-74
2023/02/04 07:05:25;;;;;;;7.50;2.80;;;-1.30;99.90;;;-2.73;100.00;102631.38;5009621;28;20034;-73
2023/02/04 07:07:51;;;;;;;5.63;2.65;;;-1.20;99.90;;;-2.76;100.00;102640.44;5005646;28;20053;-73
2023/02/04 07:10:19;;;;;;;10.07;3.72;;;-1.20;99.90;;;-2.63;100.00;102644.19;4998942;28;20077;-72
2023/02/04 07:12:45;;;;;;;8.15;4.13;;;-1.10;99.90;;;-2.58;100.00;102649.28;5005405;28;20042;-72
2023/02/04 07:15:11;;;;;;;8.57;3.67;;;-1.00;99.90;;;-2.64;100.00;102653.16;5006781;28;20029;-71
2023/02/04 07:17:37;;;;;;;11.02;4.43;;;-1.00;99.90;;;-2.64;100.00;102661.16;5003398;28;20026;-72
2023/02/04 07:20:03;;;;;;;11.50;4.13;;;-1.00;99.90;;;-2.58;100.00;102659.09;5005383;28;20037;-72
2023/02/04 07:22:29;;;;;;;7.50;3.85;;;-1.00;99.90;;;-2.51;100.00;102661.38;4999495;28;20524;-72
2023/02/04 07:24:55;;;;;;;7.00;3.47;;;-0.90;99.90;;;-2.41;100.00;102655.53;5001079;28;20042;-72
2023/02/04 07:27:20;;;;;;;8.75;3.70;;;-0.70;99.90;;;-2.24;100.00;102654.66;5004801;28;20033;-72
2023/02/04 07:29:46;;;;;;;8.98;3.50;;;-0.60;99.90;;;-2.09;100.00;102659.16;5009800;28;20405;-72
2023/02/04 07:32:12;;;;;;;10.73;4.38;;;-0.50;99.90;;;-1.94;100.00;102662.78;5004545;28;20040;-72
2023/02/04 07:34:38;;;;;;;7.60;3.88;;;-0.30;99.90;;;-1.78;100.00;102664.63;5003883;28;20029;-72
2023/02/04 07:37:03;;;;;;;6.22;3.33;;;-0.10;99.90;;;-1.72;100.00;102664.25;5003216;28;20034;-72
2023/02/04 07:39:29;;;;;;;5.43;3.10;;;0.00;99.90;;;-1.64;100.00;102678.06;5005281;28;20362;-72
2023/02/04 07:41:55;;;;;;;5.60;3.17;;;0.00;99.90;;;-1.53;100.00;102669.44;5005989;28;20056;-72
2023/02/04 07:44:24;;;;;;;7.47;3.63;;;0.20;99.90;;;-1.33;100.00;102675.47;5004080;28;20033;-72
2023/02/04 07:46:49;;;;;;;6.68;3.42;;;0.30;99.90;;;-1.11;100.00;102684.94;5006126;28;20044;-71
2023/02/04 07:49:15;;;;;;;7.85;3.83;;;0.50;99.90;;;-0.93;100.00;102686.53;5003317;28;20033;-72
2023/02/04 07:51:41;;;;;;;8.27;3.83;;;0.70;99.90;;;-0.78;100.00;102684.75;5006506;28;20441;-72
2023/02/04 07:54:07;;;;;;;7.40;4.15;;;0.90;99.90;;;-0.63;100.00;102692.81;5004737;28;20386;-72
2023/02/04 07:56:33;;;;;;;7.53;4.70;;;1.00;99.90;;;-0.54;100.00;102702.97;5018832;28;20046;-73
2023/02/04 07:58:59;;;;;;;11.52;4.85;;;1.10;99.90;;;-0.44;100.00;102704.16;5005861;28;20041;-73
2023/02/04 08:01:24;;;;;;;7.68;4.05;;;1.20;99.90;;;-0.34;100.00;102714.31;4997972;28;20042;-73
2023/02/04 08:03:50;;;;;;;7.78;4.13;;;1.30;99.90;;;-0.34;100.00;102719.69;4992052;28;20434;-73
2023/02/04 08:06:16;;;;;;;9.13;4.15;;;1.30;99.90;;;-0.34;100.00;102719.69;5003267;28;20477;-73
2023/02/04 08:08:41;;;;;;;11.82;4.78;;;1.20;99.90;;;-0.35;100.00;102720.63;5001287;28;20377;-73
2023/02/04 08:11:07;;;;;;;9.98;4.95;;;1.20;99.90;;;-0.27;100.00;102722.84;4997937;28;20045;-74
2023/02/04 08:13:33;;;;;;;9.07;5.35;;;1.30;99.90;;;-0.17;100.00;102722.19;5008222;28;20030;-74
2023/02/04 08:15:59;;;;;;;9.88;5.00;;;1.40;99.90;;;-0.07;100.00;102729.66;4989224;28;20042;-73
2023/02/04 08:18:24;;;;;;;8.98;4.93;;;1.50;99.90;;;-0.07;100.00;102732.34;5006000;28;20030;-74
2023/02/04 08:20:51;;;;;;;10.77;4.95;;;1.50;99.90;;;0.12;100.00;102737.41;5009529;28;20049;-74
2023/02/04 08:23:16;;;;;;;9.93;4.90;;;1.60;99.90;;;0.39;100.00;102747.38;5020410;28;20088;-74
2023/02/04 08:25:44;;;;;;;9.27;5.15;;;1.90;99.90;;;0.62;100.00;102743.22;4996725;28;20120;-74
2023/02/04 08:28:10;;;;;;;13.98;5.47;;;2.20;99.90;;;0.76;100.00;102736.94;5004104;28;20461;-74
2023/02/04 08:30:36;;;;;;;11.00;5.45;;;2.40;99.90;;;0.93;100.00;102749.25;5013853;28;20084;-74
2023/02/04 08:33:01;;;;;;;9.10;4.85;;;2.50;99.90;;;0.91;100.00;102756.56;5008846;28;20401;-74
2023/02/04 08:35:27;;;;;;;6.57;4.25;;;2.50;99.90;;;0.90;100.00;102759.34;4998351;28;20490;-74
2023/02/04 08:37:53;;;;;;;8.50;4.70;;;2.50;99.90;;;1.02;100.00;102763.03;5002342;28;20042;-75
2023/02/04 08:40:19;;;;;;;7.47;4.35;;;2.60;99.90;;;1.15;100.00;102762.13;5005690;28;20041;-74
2023/02/04 08:42:44;;;;;;;8.75;3.88;;;2.70;99.90;;;1.26;100.00;102758.72;4998009;28;20500;-74
2023/02/04 08:45:10;;;;;;;6.93;3.70;;;2.80;99.90;;;1.38;100.00;102753.50;5004565;28;20042;-74
2023/02/04 08:47:36;;;;;;;7.90;3.33;;;2.90;99.90;;;1.43;100.00;102765.63;4998305;28;20112;-75
2023/02/04 08:50:02;;;;;;;8.50;3.45;;;3.00;99.90;;;1.50;100.00;102766.09;5007210;28;20027;-74
2023/02/04 08:52:28;;;;;;;7.35;3.45;;;3.00;99.90;;;1.63;100.00;102773.34;5007846;28;20044;-73
2023/02/04 08:54:54;;;;;;;5.88;3.38;;;3.10;99.90;;;1.72;100.00;102778.06;4993521;28;20121;-73
2023/02/04 08:57:19;;;;;;;8.30;3.92;;;3.20;99.90;;;1.76;100.00;102782.28;5003352;28;20038;-73
2023/02/04 08:59:45;;;;;;;7.88;4.15;;;3.30;99.90;;;1.77;100.00;102791.22;4997567;28;20046;-74
2023/02/04 09:02:11;;;;;;;6.78;4.30;;;3.30;99.90;;;1.80;100.00;102791.00;4991577;28;20536;-73
2023/02/04 09:04:37;;;;;;;5.57;3.58;;;3.30;99.90;;;1.92;100.00;102800.91;5005089;28;20042;-74
2023/02/04 09:07:02;;;;;;;5.78;3.45;;;3.40;99.90;;;1.96;100.00;102804.25;4989948;28;20409;-74
2023/02/04 09:09:28;;;;;;;6.70;3.20;;;3.50;99.90;;;2.03;100.00;102800.16;4994931;28;20125;-72
2023/02/04 09:11:54;;;;;;;5.75;2.95;;;3.60;99.90;;;2.09;100.00;102796.19;5006441;28;20524;-72
2023/02/04 09:14:20;;;;;;;5.68;3.55;;;3.70;99.90;;;2.23;100.00;102809.53;5007519;28;20033;-73
2023/02/04 09:16:47;;;;;;;5.68;3.05;;;3.70;99.90;;;2.34;100.00;102816.00;5011469;28;20037;-72
2023/02/04 09:19:15;;;;;;;6.82;3.42;;;3.80;99.90;;;2.42;100.00;102813.59;4999892;28;20528;-72
2023/02/04 09:21:41;;;;;;;5.47;3.20;;;4.00;99.90;;;2.59;100.00;102826.75;5005987;28;20132;-74
2023/02/04 09:24:07;;;;;;;6.53;3.15;;;4.10;99.90;;;2.71;100.00;102821.44;5009255;28;20034;-75
2023/02/04 09:26:33;;;;;;;6.95;2.53;;;4.20;99.90;;;2.87;100.00;102818.47;5010474;28;20026;-74
2023/02/04 09:28:58;;;;;;;5.57;2.55;;;4.40;99.90;;;3.02;100.00;102821.88;5011760;28;20553;-73
2023/02/04 09:31:24;;;;;;;5.95;2.75;;;4.50;99.90;;;3.09;100.00;102828.56;5007080;28;20033;-72
2023/02/04 09:33:50;;;;;;;6.05;2.42;;;4.60;99.90;;;3.27;100.00;102826.31;5005800;28;20401;-74
2023/02/04 09:36:16;;;;;;;5.65;2.50;;;4.80;99.90;;;3.39;100.00;102834.44;4993203;28;20037;-74
2023/02/04 09:38:42;;;;;;;4.60;2.30;;;4.90;99.90;;;3.41;100.00;102825.28;5011238;28;20034;-75
2023/02/04 09:41:12;;;;;;;5.50;2.35;;;5.00;99.90;;;3.64;100.00;102832.59;5003714;28;20432;-74
2023/02/04 09:43:44;;;;;;;4.45;1.95;;;5.20;99.90;;;3.75;100.00;102829.94;5008377;28;20034;-73
2023/02/04 09:46:24;;;;;;;5.07;2.05;;;5.30;99.90;;;3.86;100.00;102835.38;5008056;28;20081;-73
2023/02/04 09:48:50;;;;;;;4.93;2.13;;;5.40;99.90;;;3.97;100.00;102828.25;5006435;28;20045;-74
2023/02/04 09:51:22;;;;;;;4.95;1.95;;;5.50;99.90;;;4.20;99.92;102841.81;4999138;28;20081;-75
2023/02/04 09:53:52;;;;;;;5.65;1.70;;;5.70;99.90;;;4.27;93.45;102840.38;4993711;28;20038;-73
2023/02/04 09:56:19;;;;;;;3.35;1.90;;;6.00;99.90;;;4.47;91.03;102842.31;5002791;28;20034;-74
2023/02/04 09:58:45;;;;;;;4.65;1.83;;;6.30;99.90;;;4.54;88.22;102844.56;5011228;28;20042;-74
2023/02/04 10:01:18;;;;;;;5.55;1.77;;;7.10;99.90;;;4.86;87.96;102851.91;5003939;28;20477;-74
2023/02/04 10:03:47;;;;;;;6.40;1.45;;;8.10;99.90;;;5.34;85.92;102847.97;5003565;28;20050;-74
2023/02/04 10:06:15;;;;;;;3.80;1.95;;;9.30;99.90;;;6.03;81.60;102841.28;5011174;28;20034;-75
2023/02/04 10:08:43;;;;;;;2.90;1.45;;;10.50;99.90;;;6.73;74.77;102832.50;5007407;28;20040;-75
2023/02/04 10:11:09;;;;;;;4.35;1.75;;;11.30;99.90;;;7.36;68.76;102826.88;5004577;28;20088;-74
2023/02/04 10:13:45;;;;;;;4.22;1.90;;;12.20;96.90;;;8.28;61.45;102827.34;5006654;28;20046;-74